createdAt,value
2017-09-20T00:01:55.671Z,13.70
2017-09-20T00:04:23.951Z,13.70
2017-09-20T00:06:52.239Z,13.70
2017-09-20T00:09:20.521Z,13.60
2017-09-20T00:11:48.780Z,13.50
2017-09-20T00:14:17.105Z,13.40
2017-09-20T00:16:45.454Z,13.40
2017-09-20T00:19:13.754Z,13.30
2017-09-20T00:21:42.015Z,13.30
2017-09-20T00:24:10.293Z,13.30
2017-09-20T00:26:38.605Z,13.20
2017-09-20T00:29:06.864Z,13.20
2017-09-20T00:31:35.144Z,13.20
2017-09-20T00:34:03.433Z,13.20
2017-09-20T00:36:31.705Z,13.10
2017-09-20T00:38:59.973Z,13.10
2017-09-20T00:41:28.232Z,13.10
2017-09-20T00:43:56.501Z,13.00
2017-09-20T00:46:25.543Z,13.00
2017-09-20T00:48:53.940Z,13.00
2017-09-20T00:51:22.309Z,13.00
2017-09-20T00:53:50.555Z,13.00
2017-09-20T00:56:18.830Z,12.90
2017-09-20T00:58:47.868Z,12.90
2017-09-20T01:01:16.154Z,12.90
2017-09-20T01:03:44.429Z,12.90
2017-09-20T01:06:12.695Z,12.80
2017-09-20T01:08:40.958Z,12.80
2017-09-20T01:11:09.264Z,12.80
2017-09-20T02:27:54.154Z,11.70
2017-09-20T02:30:23.179Z,11.70
2017-09-20T02:32:51.452Z,11.70
2017-09-20T02:35:19.708Z,11.70
2017-09-20T02:37:48.005Z,11.60
2017-09-20T02:40:16.276Z,11.70
2017-09-20T02:42:44.543Z,11.70
2017-09-20T02:45:13.567Z,11.70
2017-09-20T02:47:41.864Z,11.60
2017-09-20T02:50:10.143Z,11.60
2017-09-20T02:52:38.424Z,11.70
2017-09-20T02:55:06.678Z,11.70
2017-09-20T02:57:34.949Z,11.70
2017-09-20T03:00:03.263Z,11.70
2017-09-20T03:02:31.554Z,11.60
2017-09-20T03:04:59.811Z,11.60
2017-09-20T03:07:28.078Z,11.50
2017-09-20T03:09:56.367Z,11.50
2017-09-20T03:12:24.670Z,11.50
2017-09-20T03:14:52.960Z,11.50
2017-09-20T03:17:21.214Z,11.40
2017-09-20T03:19:49.487Z,11.40
2017-09-20T03:22:17.748Z,11.40
2017-09-20T03:24:46.771Z,11.50
2017-09-20T03:27:15.074Z,11.40
2017-09-20T03:29:43.355Z,11.50
2017-09-20T03:32:11.641Z,11.50
2017-09-20T03:34:40.029Z,11.60
2017-09-20T03:37:08.281Z,11.60
2017-09-20T03:39:36.550Z,11.70
2017-09-20T03:42:04.907Z,11.70
2017-09-20T03:44:33.965Z,11.70
2017-09-20T03:47:02.216Z,11.70
2017-09-20T03:49:30.561Z,11.80
2017-09-20T03:51:59.043Z,11.80
2017-09-20T03:54:27.323Z,11.90
2017-09-20T03:56:55.563Z,11.90
2017-09-20T03:59:24.007Z,11.90
2017-09-20T04:01:53.847Z,11.90
2017-09-20T04:04:22.117Z,11.90
2017-09-20T04:06:51.127Z,12.00
2017-09-20T04:09:19.439Z,11.90
2017-09-20T04:11:47.692Z,11.90
2017-09-20T04:14:15.998Z,11.90
2017-09-20T04:16:44.261Z,11.90
2017-09-20T04:19:12.518Z,11.90
2017-09-20T04:21:41.575Z,11.90
2017-09-20T04:24:09.842Z,11.90
2017-09-20T04:26:38.136Z,11.80
2017-09-20T04:29:06.427Z,11.80
2017-09-20T04:31:34.707Z,11.80
2017-09-20T04:34:03.074Z,11.80
2017-09-20T04:36:31.351Z,11.80
2017-09-20T04:38:59.660Z,11.80
2017-09-20T04:41:28.012Z,11.80
2017-09-20T04:43:56.268Z,11.80
2017-09-20T04:46:24.798Z,11.80
2017-09-20T04:48:53.079Z,11.80
2017-09-20T04:51:21.349Z,11.90
2017-09-20T04:53:49.594Z,11.90
2017-09-20T04:56:17.871Z,11.90
2017-09-20T04:58:46.215Z,12.00
2017-09-20T05:01:14.562Z,12.00
2017-09-20T05:03:42.865Z,12.00
2017-09-20T05:06:11.162Z,12.00
2017-09-20T05:08:39.406Z,12.00
2017-09-20T05:11:07.706Z,12.00
2017-09-20T05:13:35.966Z,12.00
2017-09-20T05:16:04.235Z,12.00
2017-09-20T05:18:32.490Z,12.00
2017-09-20T05:21:01.636Z,12.00
2017-09-20T05:23:29.985Z,12.00
2017-09-20T05:25:58.341Z,12.00
2017-09-20T05:28:26.609Z,12.00
2017-09-20T05:30:54.899Z,12.00
2017-09-20T05:33:23.242Z,12.00
2017-09-20T05:35:51.537Z,12.10
2017-09-20T05:38:19.805Z,12.10
2017-09-20T05:40:48.083Z,12.10
2017-09-20T05:43:16.476Z,12.00
2017-09-20T05:45:44.735Z,12.10
2017-09-20T05:48:13.002Z,12.10
2017-09-20T05:50:41.647Z,12.00
2017-09-20T05:53:10.749Z,12.10
2017-09-20T05:55:39.094Z,12.00
2017-09-20T05:58:07.488Z,12.10
2017-09-20T06:00:35.715Z,12.10
2017-09-20T06:03:04.109Z,12.20
2017-09-20T06:05:32.372Z,12.20
2017-09-20T06:08:00.713Z,12.20
2017-09-20T06:10:28.999Z,12.30
2017-09-20T06:12:57.247Z,12.30
2017-09-20T06:15:25.558Z,12.30
2017-09-20T06:17:53.825Z,12.40
2017-09-20T06:20:22.115Z,12.40
2017-09-20T06:22:50.404Z,12.40
2017-09-20T06:25:18.650Z,12.30
2017-09-20T06:27:46.940Z,12.40
2017-09-20T06:30:15.252Z,12.40
2017-09-20T06:32:43.533Z,12.30
2017-09-20T06:35:11.783Z,12.40
2017-09-20T06:37:40.056Z,12.30
2017-09-20T06:40:08.322Z,12.30
2017-09-20T06:42:37.381Z,12.20
2017-09-20T06:45:05.634Z,12.20
2017-09-20T06:47:33.891Z,12.20
2017-09-20T06:50:02.172Z,12.30
2017-09-20T06:52:30.433Z,12.30
2017-09-20T06:54:59.482Z,12.60
2017-09-20T06:57:27.743Z,12.60
2017-09-20T06:59:56.775Z,12.80
2017-09-20T07:02:25.018Z,12.80
2017-09-20T07:04:53.296Z,12.90
2017-09-20T07:07:21.611Z,13.00
2017-09-20T07:09:49.922Z,13.10
2017-09-20T07:12:18.202Z,13.20
2017-09-20T07:14:46.452Z,13.20
2017-09-20T07:17:14.719Z,13.20
2017-09-20T07:19:42.988Z,13.30
2017-09-20T07:22:11.300Z,13.40
2017-09-20T07:24:39.584Z,13.40
2017-09-20T07:27:07.831Z,13.40
2017-09-20T07:29:36.114Z,13.50
2017-09-20T07:32:04.388Z,13.40
2017-09-20T07:34:32.947Z,13.40
2017-09-20T07:37:02.106Z,13.50
2017-09-20T07:39:30.430Z,13.40
2017-09-20T07:41:58.795Z,13.50
2017-09-20T07:44:27.870Z,13.40
2017-09-20T07:46:56.208Z,13.40
2017-09-20T07:49:24.546Z,13.50
2017-09-20T07:51:53.853Z,13.50
2017-09-20T07:54:22.098Z,13.50
2017-09-20T07:56:50.371Z,13.50
2017-09-20T07:59:18.926Z,13.60
2017-09-20T08:01:47.312Z,13.70
2017-09-20T08:04:15.610Z,13.70
2017-09-20T08:06:44.663Z,13.80
2017-09-20T08:09:12.957Z,13.70
2017-09-20T08:11:41.273Z,13.70
2017-09-20T08:14:09.598Z,13.70
2017-09-20T08:16:37.916Z,13.80
2017-09-20T08:19:06.190Z,13.70
2017-09-20T08:21:34.475Z,13.70
2017-09-20T08:24:04.295Z,13.60
2017-09-20T08:26:33.360Z,13.60
2017-09-20T08:29:01.782Z,13.60
2017-09-20T08:31:30.038Z,13.70
2017-09-20T08:33:58.290Z,13.60
2017-09-20T08:36:26.555Z,13.70
2017-09-20T08:38:54.823Z,13.60
2017-09-20T08:41:23.852Z,13.60
2017-09-20T08:43:52.111Z,13.60
2017-09-20T08:46:21.158Z,13.70
2017-09-20T08:48:49.424Z,13.70
2017-09-20T08:51:17.706Z,13.60
2017-09-20T08:53:45.984Z,13.80
2017-09-20T08:56:14.270Z,13.80
2017-09-20T08:58:42.548Z,13.80
2017-09-20T09:01:10.827Z,13.80
2017-09-20T09:03:39.110Z,13.80
2017-09-20T09:06:07.370Z,13.90
2017-09-20T09:08:35.648Z,13.90
2017-09-20T09:11:03.908Z,13.90
2017-09-20T09:13:32.954Z,13.90
2017-09-20T09:16:01.194Z,13.90
2017-09-20T09:18:30.248Z,13.90
2017-09-20T09:20:58.509Z,13.90
2017-09-20T09:23:26.775Z,14.00
2017-09-20T09:25:55.077Z,14.10
2017-09-20T09:28:23.337Z,14.20
2017-09-20T09:30:51.595Z,14.20
2017-09-20T09:33:20.630Z,14.60
2017-09-20T09:35:48.881Z,14.60
2017-09-20T09:38:17.213Z,14.60
2017-09-20T09:40:45.474Z,14.70
2017-09-20T09:43:13.929Z,14.80
2017-09-20T09:45:42.962Z,15.10
2017-09-20T09:48:11.236Z,15.10
2017-09-20T09:50:39.491Z,15.30
2017-09-20T09:53:07.746Z,15.40
2017-09-20T09:55:39.846Z,15.30
2017-09-20T09:58:08.118Z,15.30
2017-09-20T10:00:37.149Z,15.50
2017-09-20T10:03:05.416Z,15.40
2017-09-20T10:05:33.660Z,15.60
2017-09-20T10:08:02.725Z,15.60
2017-09-20T10:10:30.971Z,15.60
2017-09-20T10:12:59.276Z,15.60
2017-09-20T10:15:27.528Z,15.60
2017-09-20T10:17:56.751Z,15.60
2017-09-20T10:20:25.044Z,15.60
2017-09-20T10:22:53.318Z,15.60
2017-09-20T10:25:21.575Z,15.50
2017-09-20T10:27:49.871Z,15.50
2017-09-20T10:30:18.155Z,15.50
2017-09-20T10:32:46.407Z,15.50
2017-09-20T10:35:14.676Z,15.50
2017-09-20T10:37:43.692Z,15.50
2017-09-20T10:40:12.751Z,15.50
2017-09-20T10:42:41.003Z,15.50
2017-09-20T10:45:09.268Z,15.50
2017-09-20T10:47:37.552Z,15.50
2017-09-20T10:50:05.835Z,15.60
2017-09-20T10:52:34.083Z,15.50
2017-09-20T10:55:02.367Z,15.50
2017-09-20T10:57:31.510Z,15.40
2017-09-20T10:59:59.783Z,15.40
2017-09-20T11:02:28.056Z,15.40
2017-09-20T11:04:56.326Z,15.50
2017-09-20T11:07:24.863Z,15.60
2017-09-20T11:09:53.142Z,15.60
2017-09-20T11:12:21.492Z,15.60
2017-09-20T11:14:49.754Z,15.70
2017-09-20T11:17:18.055Z,15.80
2017-09-20T11:19:46.435Z,15.70
2017-09-20T11:22:14.717Z,15.80
2017-09-20T11:24:43.030Z,15.80
2017-09-20T11:27:11.282Z,15.80
2017-09-20T11:29:39.532Z,15.90
2017-09-20T11:32:07.839Z,15.90
2017-09-20T11:34:36.088Z,16.00
2017-09-20T11:37:04.393Z,16.00
2017-09-20T11:39:32.639Z,16.10
2017-09-20T11:42:01.671Z,16.10
2017-09-20T11:44:29.927Z,16.10
2017-09-20T11:46:58.226Z,16.20
2017-09-20T11:49:26.511Z,16.30
2017-09-20T11:51:54.807Z,16.40
2017-09-20T11:54:23.079Z,16.50
2017-09-20T11:56:51.346Z,16.60
2017-09-20T11:59:19.634Z,16.60
2017-09-20T12:01:47.902Z,16.60
2017-09-20T12:04:16.264Z,16.60
2017-09-20T12:06:45.405Z,16.50
2017-09-20T12:09:13.682Z,16.50
2017-09-20T12:11:41.962Z,16.40
2017-09-20T12:14:10.219Z,16.30
2017-09-20T12:16:38.510Z,16.30
2017-09-20T12:19:06.752Z,16.20
2017-09-20T12:21:35.129Z,16.10
2017-09-20T12:24:03.367Z,16.00
2017-09-20T12:26:31.638Z,16.00
2017-09-20T12:28:59.908Z,16.00
2017-09-20T12:31:28.931Z,15.90
2017-09-20T12:33:57.211Z,15.90
2017-09-20T12:36:25.535Z,15.90
2017-09-20T12:38:53.770Z,15.90
2017-09-20T12:41:22.015Z,15.90
2017-09-20T12:43:51.050Z,15.90
2017-09-20T12:46:19.307Z,15.90
2017-09-20T12:48:47.618Z,16.00
2017-09-20T12:51:15.890Z,16.00
2017-09-20T12:53:44.163Z,15.90
2017-09-20T12:56:12.410Z,16.00
2017-09-20T12:58:41.442Z,15.90
2017-09-20T13:01:09.691Z,15.90
2017-09-20T13:03:38.734Z,15.90
2017-09-20T13:06:06.986Z,15.90
2017-09-20T13:08:35.299Z,15.90
2017-09-20T13:11:03.578Z,15.90
2017-09-20T13:13:32.564Z,15.90
2017-09-20T13:16:00.831Z,15.90
2017-09-20T13:18:29.079Z,15.90
2017-09-20T13:20:57.419Z,15.90
2017-09-20T13:23:25.671Z,15.90
2017-09-20T13:25:54.079Z,16.00
2017-09-20T13:28:22.338Z,16.00
2017-09-20T13:30:50.779Z,16.20
2017-09-20T13:33:19.848Z,16.50
2017-09-20T13:35:48.130Z,16.50
2017-09-20T13:38:16.405Z,16.70
2017-09-20T13:40:46.258Z,17.00
2017-09-20T13:43:14.497Z,17.00
2017-09-20T13:45:42.783Z,17.10
2017-09-20T13:48:11.071Z,17.20
2017-09-20T13:50:39.392Z,17.40
2017-09-20T13:53:07.736Z,17.50
2017-09-20T13:55:36.515Z,17.50
2017-09-20T13:58:04.765Z,17.50
2017-09-20T14:00:33.807Z,17.60
2017-09-20T14:03:02.190Z,17.60
2017-09-20T14:05:30.533Z,17.70
2017-09-20T14:07:59.664Z,17.70
2017-09-20T14:10:27.918Z,17.70
2017-09-20T14:12:56.951Z,17.60
2017-09-20T14:15:25.231Z,17.60
2017-09-20T14:17:53.495Z,17.50
2017-09-20T14:20:21.764Z,17.50
2017-09-20T14:22:50.798Z,17.50
2017-09-20T14:25:19.215Z,17.50
2017-09-20T14:27:47.504Z,17.50
2017-09-20T14:30:17.255Z,17.40
2017-09-20T14:32:45.576Z,17.40
2017-09-20T14:35:13.820Z,17.30
2017-09-20T14:37:42.100Z,17.30
2017-09-20T14:40:10.365Z,17.20
2017-09-20T14:42:39.510Z,17.10
2017-09-20T14:45:07.767Z,17.10
2017-09-20T14:47:36.034Z,17.10
2017-09-20T14:50:04.288Z,17.10
2017-09-20T14:52:32.562Z,17.10
2017-09-20T14:55:00.944Z,17.10
2017-09-20T14:57:29.291Z,17.00
2017-09-20T14:59:57.568Z,17.00
2017-09-20T15:02:25.865Z,17.00
2017-09-20T15:04:54.111Z,17.10
2017-09-20T15:07:22.381Z,17.00
2017-09-20T15:09:51.443Z,17.00
2017-09-20T15:12:19.798Z,16.90
2017-09-20T15:14:48.064Z,16.90
2017-09-20T15:17:16.493Z,17.00
2017-09-20T15:19:44.849Z,17.00
2017-09-20T15:22:13.104Z,16.90
2017-09-20T15:24:41.404Z,16.90
2017-09-20T15:27:09.657Z,16.90
2017-09-20T15:29:37.925Z,16.90
2017-09-20T15:32:07.223Z,16.80
2017-09-20T15:34:36.279Z,16.80
2017-09-20T15:37:04.590Z,16.80
2017-09-20T15:39:33.631Z,16.70
2017-09-20T15:42:01.883Z,16.70
2017-09-20T15:44:30.920Z,16.70
2017-09-20T15:46:59.345Z,16.70
2017-09-20T15:49:27.596Z,16.70
2017-09-20T15:51:55.869Z,16.70
2017-09-20T15:54:24.163Z,16.70
2017-09-20T15:56:52.414Z,16.70
2017-09-20T15:59:20.723Z,16.80
2017-09-20T16:01:48.966Z,16.90
2017-09-20T16:04:17.226Z,16.90
2017-09-20T16:06:45.491Z,16.90
2017-09-20T16:09:13.735Z,16.90
2017-09-20T16:11:42.006Z,16.90
2017-09-20T16:14:10.320Z,16.90
2017-09-20T16:16:38.590Z,16.90
2017-09-20T16:19:06.850Z,16.90
2017-09-20T16:21:35.150Z,16.90
2017-09-20T16:24:03.408Z,16.80
2017-09-20T16:26:31.680Z,16.80
2017-09-20T16:28:59.936Z,16.80
2017-09-20T16:31:28.972Z,16.60
2017-09-20T16:33:57.224Z,16.60
2017-09-20T16:36:26.951Z,16.50
2017-09-20T16:38:55.958Z,16.50
2017-09-20T16:41:24.218Z,16.40
2017-09-20T16:43:53.241Z,16.30
2017-09-20T16:46:21.539Z,16.30
2017-09-20T16:48:49.796Z,16.30
2017-09-20T16:51:18.063Z,16.10
2017-09-20T16:53:47.091Z,16.10
2017-09-20T16:56:15.351Z,16.00
2017-09-20T16:58:43.622Z,16.00
2017-09-20T17:01:12.647Z,15.90
2017-09-20T17:03:40.885Z,15.90
2017-09-20T17:06:11.167Z,15.90
2017-09-20T17:08:39.410Z,15.90
2017-09-20T17:11:08.431Z,15.80
2017-09-20T17:13:36.679Z,15.70
2017-09-20T17:16:05.718Z,15.70
2017-09-20T17:18:34.002Z,15.60
2017-09-20T17:21:02.278Z,15.60
2017-09-20T17:23:30.575Z,15.60
2017-09-20T17:25:58.831Z,15.50
2017-09-20T17:28:27.126Z,15.40
2017-09-20T17:30:55.422Z,15.40
2017-09-20T17:33:23.688Z,15.40
2017-09-20T17:35:51.931Z,15.30
2017-09-20T17:38:21.015Z,15.30
2017-09-20T17:40:49.245Z,15.30
2017-09-20T17:43:17.500Z,15.20
2017-09-20T17:45:45.754Z,15.20
2017-09-20T17:48:14.781Z,15.10
2017-09-20T17:50:43.088Z,15.10
2017-09-20T17:53:11.364Z,15.10
2017-09-20T17:55:39.618Z,15.10
2017-09-20T17:58:07.938Z,15.10
2017-09-20T18:00:36.207Z,15.10
2017-09-20T18:03:04.466Z,15.00
2017-09-20T18:05:32.726Z,15.10
2017-09-20T18:08:01.751Z,15.20
2017-09-20T18:10:30.011Z,15.10
2017-09-20T18:12:59.038Z,15.10
2017-09-20T18:15:27.290Z,15.10
2017-09-20T18:17:56.446Z,15.20
2017-09-20T18:20:24.694Z,15.10
2017-09-20T18:22:52.996Z,15.10
2017-09-20T18:25:21.282Z,15.10
2017-09-20T18:27:49.560Z,15.00
2017-09-20T18:30:17.834Z,15.10
2017-09-20T18:32:46.082Z,15.10
2017-09-20T18:35:14.366Z,15.10
2017-09-20T18:37:43.382Z,15.10
2017-09-20T18:40:11.651Z,15.10
2017-09-20T18:42:39.964Z,15.20
2017-09-20T18:45:08.235Z,15.10
2017-09-20T18:47:36.478Z,15.10
2017-09-20T18:50:05.515Z,15.10
2017-09-20T18:52:33.794Z,15.10
2017-09-20T18:55:02.078Z,15.10
2017-09-20T18:57:30.330Z,15.00
2017-09-20T18:59:58.593Z,15.00
2017-09-20T19:02:27.610Z,15.00
2017-09-20T19:04:55.893Z,15.00
2017-09-20T19:07:24.211Z,15.00
2017-09-20T19:09:52.501Z,15.00
2017-09-20T19:12:20.769Z,15.00
2017-09-20T19:14:49.035Z,14.90
2017-09-20T19:17:17.282Z,14.90
2017-09-20T19:19:45.555Z,14.90
2017-09-20T19:22:14.574Z,14.80
2017-09-20T19:24:42.837Z,14.80
2017-09-20T19:27:11.846Z,14.80
2017-09-20T19:29:40.114Z,14.80
2017-09-20T19:32:09.135Z,14.80
2017-09-20T19:34:37.401Z,14.70
2017-09-20T19:37:06.420Z,14.70
2017-09-20T19:39:34.695Z,14.70
2017-09-20T19:42:02.978Z,14.70
2017-09-20T19:44:31.280Z,14.70
2017-09-20T19:46:59.654Z,14.70
2017-09-20T19:49:27.940Z,14.60
2017-09-20T19:51:56.215Z,14.60
2017-09-20T19:54:24.461Z,14.60
2017-09-20T19:56:53.495Z,14.60
2017-09-20T19:59:21.750Z,14.60
2017-09-20T20:01:53.148Z,14.50
2017-09-20T20:04:22.041Z,14.50
2017-09-20T20:06:50.308Z,14.50
2017-09-20T20:09:18.560Z,14.50
2017-09-20T20:11:47.611Z,14.40
2017-09-20T20:14:15.895Z,14.40
2017-09-20T20:16:44.163Z,14.40
2017-09-20T20:19:12.419Z,14.40
2017-09-20T20:21:40.726Z,14.40
2017-09-20T20:24:08.979Z,14.40
2017-09-20T20:26:37.243Z,14.30
2017-09-20T20:29:06.292Z,14.20
2017-09-20T20:31:34.550Z,14.20
2017-09-20T20:34:02.872Z,14.20
2017-09-20T20:36:31.124Z,14.20
2017-09-20T20:38:59.390Z,14.20
2017-09-20T20:41:28.505Z,14.20
2017-09-20T20:43:56.799Z,14.20
2017-09-20T20:46:25.078Z,14.20
2017-09-20T20:48:53.349Z,14.20
2017-09-20T20:51:21.630Z,14.30
2017-09-20T20:53:49.943Z,14.30
2017-09-20T20:56:18.976Z,14.20
2017-09-20T20:58:48.012Z,14.20
2017-09-20T21:01:16.305Z,14.20
2017-09-20T21:03:44.581Z,14.20
2017-09-20T21:06:12.836Z,14.30
2017-09-20T21:08:41.105Z,14.30
2017-09-20T21:11:10.117Z,14.30
2017-09-20T21:13:38.391Z,14.30
2017-09-20T21:16:06.651Z,14.30
2017-09-20T21:18:35.683Z,14.20
2017-09-20T21:21:03.939Z,14.20
2017-09-20T21:23:33.672Z,14.10
2017-09-20T21:26:01.979Z,14.10
2017-09-20T21:28:30.256Z,14.10
2017-09-20T21:30:58.514Z,14.10
2017-09-20T21:33:26.819Z,14.10
2017-09-20T21:35:55.076Z,14.00
2017-09-20T21:38:23.339Z,14.00
2017-09-20T21:40:52.351Z,14.00
2017-09-20T21:43:21.230Z,14.00
2017-09-20T21:45:50.272Z,13.90
2017-09-20T21:48:18.557Z,13.90
2017-09-20T21:50:46.810Z,14.00
2017-09-20T21:53:15.083Z,13.90
2017-09-20T21:55:44.101Z,13.90
2017-09-20T21:58:12.365Z,13.90
2017-09-20T22:00:40.676Z,13.80
2017-09-20T22:03:08.966Z,13.80
2017-09-20T22:05:37.241Z,13.70
2017-09-20T22:08:05.514Z,13.70
2017-09-20T22:10:33.807Z,13.70
2017-09-20T22:13:02.056Z,13.70
2017-09-20T22:15:42.450Z,13.60
2017-09-20T22:18:29.471Z,13.50
2017-09-20T22:21:15.542Z,13.50
2017-09-20T22:24:01.760Z,13.50
2017-09-20T22:26:44.555Z,13.40
2017-09-20T22:29:12.587Z,13.40
2017-09-20T22:31:40.856Z,13.30
2017-09-20T22:34:09.140Z,13.30
2017-09-20T22:36:37.440Z,13.30
2017-09-20T22:39:05.724Z,13.20
2017-09-20T22:41:33.993Z,13.30
2017-09-20T22:44:02.263Z,13.30
2017-09-20T22:46:30.553Z,13.20
2017-09-20T22:48:58.924Z,13.10
2017-09-20T22:51:27.192Z,13.10
2017-09-20T22:53:55.474Z,13.10
2017-09-20T22:56:23.739Z,13.00
2017-09-20T22:58:52.038Z,12.90
2017-09-20T23:01:20.320Z,12.90
2017-09-20T23:03:48.583Z,12.90
2017-09-20T23:06:16.892Z,12.90
2017-09-20T23:08:45.168Z,12.80
2017-09-20T23:11:13.438Z,12.80
2017-09-20T23:13:41.695Z,12.70
2017-09-20T23:16:09.983Z,12.70
2017-09-20T23:18:38.295Z,12.60
2017-09-20T23:21:06.570Z,12.60
2017-09-20T23:23:34.815Z,12.60
2017-09-20T23:26:03.855Z,12.50
2017-09-20T23:28:32.116Z,12.50
2017-09-20T23:31:00.386Z,12.60
2017-09-20T23:33:28.640Z,12.50
2017-09-20T23:35:56.988Z,12.50
2017-09-20T23:38:25.263Z,12.50
2017-09-20T23:40:53.579Z,12.50
2017-09-20T23:43:21.841Z,12.40
2017-09-20T23:45:50.111Z,12.40
2017-09-20T23:48:18.396Z,12.40
2017-09-20T23:50:47.332Z,12.30
2017-09-20T23:53:16.402Z,12.20
2017-09-20T23:55:44.772Z,12.20
2017-09-20T23:58:13.038Z,12.20
